Coxhoe, United Kingdom
Current Conditions -  °F | °C
As of 3:50 PM on Wednesday 28 Jan 2015 (Local Time) from EGNV Reporting Station
Few Clouds Few Clouds  
Wind Chill: 27°   Ceiling: Unl
Heat Index: 37°   Visibility: 6mi
Dew Point: 30°   Wind: 20mph
Humidity: 75%   Direction: 270°W
Pressure: 29.29"   Gusts: NA
Location:  54.71°N, 1.5°W
Report Text: EGNV 281550Z 27017KT 9999 FEW015CB FEW020 03/M01 Q0992
Loading
Personal Weather Stations






























Interactive Weather Map New forecast layout! Learn more

10-Day Weather Forecast

Advertisements
Track Severe Weather on mobile